Calvert, Texas
Current Conditions -  °F | °C
As of 9:55 PM on Thursday 18 Dec 2014 (Local Time) from KLHB Reporting Station
Haze Haze  
Wind Chill: 51°   Ceiling: 500
Heat Index: 51°   Visibility: 3mi
Dew Point: 51°   Wind: 6mph
Humidity: 97%   Direction: 10°N
Pressure: 30.11"   Gusts: NA
Location:  30.98°N, 96.67°W
Report Text: KLHB 190355Z AUTO 01005KT 3SM BR OVC005 11/10 A3011 RMK AO2 LTG DSNT S AND SW T01080103
Loading
Personal Weather Stations






























Interactive Weather Map New forecast layout! Learn more

10-Day Weather Forecast

Advertisements
Track Severe Weather on mobile